»·PEaware :: N211FU KBUR-KLAS

N211FU :: KBUR-KLAS

FLIGHT INFORMATION

Flight Status: Arrived
Operator: Privately registered:
United States
More flights under this callsign
Pilot: Christopher D. (33180)
Aircraft: Diamond DA-62
(DA62)
More flights by this aircraft type
Origin: KBUR Bob Hope-Burbank
United States
Destination: KLAS McCarran Intl
United States
More flights between these airports :: More routes between these airports
Route: VNY3 DAG CRESO4
File this flight plan on PilotEdge
Remarks:
Altitude:
(Current/Filed)
11,000ft
Speed:
(Current/Filed)
150kts
Departed: 01-Feb-21 11:49 AM
Arrived: 01-Feb-21 01:15 PM
Distance/Time
Traveled:
193nm/1:25
Distance/Time
To Go:
Arrived

Flight Plot

Page will automatically refresh every two minutes.

Flight plan parsing failed; only flown route is shown


Map Options




Map Legend


Flown Route
Filed Route
Departure Airport
Arrival Airport
Navaid (VOR, NDB)
Fix

Horizontal Profiles

Position Reports

Time Latitude Longitude Heading Altitude Ground
Speed
01-Feb-21 11:30 34.196329 -118.368372 1 729ft 0kts
01-Feb-21 11:31 34.196329 -118.368372 1 729ft 0kts
01-Feb-21 11:32 34.196329 -118.368372 1 729ft 0kts
01-Feb-21 11:33 34.196329 -118.368372 1 729ft 0kts
01-Feb-21 11:34 34.196329 -118.368372 1 729ft 0kts
01-Feb-21 11:35 34.196329 -118.368372 1 729ft 0kts
01-Feb-21 11:36 34.196329 -118.368372 1 729ft 0kts
01-Feb-21 11:37 34.196329 -118.368372 1 729ft 0kts
01-Feb-21 11:38 34.196329 -118.368372 1 729ft 0kts
01-Feb-21 11:39 34.196329 -118.368372 1 729ft 0kts
01-Feb-21 11:40 34.196329 -118.368372 1 729ft 0kts
01-Feb-21 11:41 34.196329 -118.368372 1 729ft 0kts
01-Feb-21 11:42 34.196329 -118.368372 1 729ft 0kts
01-Feb-21 11:43 34.196329 -118.368372 1 729ft 0kts
01-Feb-21 11:44 34.196639 -118.367499 95 728ft 6kts
01-Feb-21 11:45 34.196929 -118.368094 269 729ft 14kts
01-Feb-21 11:46 34.197076 -118.368850 318 729ft 0kts
01-Feb-21 11:47 34.197076 -118.368850 318 729ft 0kts
01-Feb-21 11:48 34.197418 -118.357967 94 818ft 89kts
01-Feb-21 11:49 34.181697 -118.355612 223 1830ft 86kts
01-Feb-21 11:50 34.164596 -118.376341 225 3011ft 88kts
01-Feb-21 11:51 34.143742 -118.402247 225 3959ft 129kts
01-Feb-21 11:52 34.144916 -118.422822 358 5717ft 99kts
01-Feb-21 11:53 34.175487 -118.421383 2 6688ft 142kts
01-Feb-21 11:54 34.221561 -118.408064 22 6764ft 187kts
01-Feb-21 11:55 34.269709 -118.381814 24 6773ft 191kts
01-Feb-21 11:56 34.318630 -118.355817 20 6780ft 192kts
01-Feb-21 11:57 34.364553 -118.336218 16 8057ft 141kts
01-Feb-21 11:58 34.402152 -118.325273 8 9519ft 140kts
01-Feb-21 11:59 34.442259 -118.320037 3 10653ft 161kts
01-Feb-21 12:00 34.485928 -118.297838 55 10771ft 196kts
01-Feb-21 12:01 34.514523 -118.251002 53 10758ft 155kts
01-Feb-21 12:02 34.539918 -118.210413 52 10730ft 148kts
01-Feb-21 12:03 34.564514 -118.171056 53 10722ft 145kts
01-Feb-21 12:04 34.588799 -118.132157 53 10723ft 144kts
01-Feb-21 12:05 34.613123 -118.093156 53 10723ft 144kts
01-Feb-21 12:06 34.632771 -118.051454 79 10723ft 144kts
01-Feb-21 12:08 34.638061 -118.003262 83 10723ft 144kts
01-Feb-21 12:09 34.643336 -117.955101 83 10723ft 144kts
01-Feb-21 12:10 34.648610 -117.906801 83 10723ft 144kts
01-Feb-21 12:11 34.653843 -117.858699 83 10723ft 144kts
01-Feb-21 12:12 34.659081 -117.810361 83 10723ft 144kts
01-Feb-21 12:13 34.664677 -117.762205 79 10722ft 144kts
01-Feb-21 12:14 34.676491 -117.715495 73 10723ft 144kts
01-Feb-21 12:15 34.688466 -117.668844 73 10723ft 144kts
01-Feb-21 12:16 34.700392 -117.622312 73 10723ft 144kts
01-Feb-21 12:17 34.712350 -117.575574 73 10723ft 145kts
01-Feb-21 12:18 34.724276 -117.528871 73 10722ft 144kts
01-Feb-21 12:19 34.736387 -117.481363 73 10723ft 149kts
01-Feb-21 12:20 34.748694 -117.432994 73 10722ft 150kts
01-Feb-21 12:21 34.761005 -117.384524 73 10722ft 150kts
01-Feb-21 12:21 34.771271 -117.344041 73 10722ft 150kts
01-Feb-21 12:23 34.785619 -117.287346 73 10723ft 150kts
01-Feb-21 12:24 34.797876 -117.238816 73 10723ft 150kts
01-Feb-21 12:24 34.808116 -117.198196 73 10723ft 150kts
01-Feb-21 12:26 34.822402 -117.141430 73 10726ft 150kts
01-Feb-21 12:26 34.832542 -117.101060 73 10740ft 150kts
01-Feb-21 12:27 34.844754 -117.052365 73 10744ft 150kts
01-Feb-21 12:28 34.856949 -117.003641 73 10740ft 150kts
01-Feb-21 12:29 34.869106 -116.954975 73 10741ft 150kts
01-Feb-21 12:30 34.881265 -116.906214 73 10742ft 150kts
01-Feb-21 12:31 34.893437 -116.857293 73 10741ft 150kts
01-Feb-21 12:32 34.905534 -116.808594 73 10741ft 150kts
01-Feb-21 12:33 34.917650 -116.759726 73 10741ft 150kts
01-Feb-21 12:34 34.929725 -116.710923 73 10741ft 150kts
01-Feb-21 12:35 34.941774 -116.662138 73 10741ft 152kts
01-Feb-21 12:36 34.956271 -116.603312 73 10741ft 196kts
01-Feb-21 12:37 34.978774 -116.541618 61 10739ft 201kts
01-Feb-21 12:38 35.005446 -116.481545 61 10740ft 202kts
01-Feb-21 12:39 35.032194 -116.421292 61 10741ft 202kts
01-Feb-21 12:40 35.058967 -116.360881 61 10742ft 202kts
01-Feb-21 12:41 35.085686 -116.300489 61 10739ft 201kts
01-Feb-21 12:42 35.112230 -116.240383 61 10742ft 202kts
01-Feb-21 12:43 35.138938 -116.179799 61 10740ft 202kts
01-Feb-21 12:44 35.165524 -116.119377 61 10741ft 202kts
01-Feb-21 12:45 35.192106 -116.058857 62 10741ft 202kts
01-Feb-21 12:46 35.218664 -115.998298 62 10741ft 202kts
01-Feb-21 12:47 35.245171 -115.937734 62 10741ft 202kts
01-Feb-21 12:48 35.271706 -115.877002 62 10741ft 202kts
01-Feb-21 12:49 35.298158 -115.816350 62 10742ft 202kts
01-Feb-21 12:50 35.330701 -115.760353 46 10718ft 203kts
01-Feb-21 12:51 35.370236 -115.707747 47 10151ft 213kts
01-Feb-21 12:52 35.409843 -115.654886 47 9785ft 208kts
01-Feb-21 12:53 35.448256 -115.603546 47 9728ft 201kts
01-Feb-21 12:54 35.485897 -115.553157 47 9725ft 200kts
01-Feb-21 12:55 35.523474 -115.502798 47 9722ft 199kts
01-Feb-21 12:56 35.560821 -115.452697 47 9723ft 199kts
01-Feb-21 12:57 35.598301 -115.402336 47 9723ft 199kts
01-Feb-21 12:58 35.635736 -115.351961 47 9723ft 199kts
01-Feb-21 12:59 35.673259 -115.301401 47 9724ft 200kts
01-Feb-21 13:00 35.710638 -115.250949 47 9722ft 199kts
01-Feb-21 13:01 35.751442 -115.206128 17 9724ft 199kts
01-Feb-21 13:02 35.805214 -115.189373 12 9722ft 199kts
01-Feb-21 13:03 35.859176 -115.174049 12 9722ft 199kts
01-Feb-21 13:04 35.911056 -115.159330 12 9064ft 176kts
01-Feb-21 13:05 35.956033 -115.146491 12 8137ft 153kts
01-Feb-21 13:06 35.992618 -115.135938 12 7623ft 120kts
01-Feb-21 13:07 36.029453 -115.125314 12 6262ft 147kts
01-Feb-21 13:08 36.068442 -115.114093 12 5293ft 129kts
01-Feb-21 13:09 36.102004 -115.104354 12 4688ft 137kts
01-Feb-21 13:10 36.140179 -115.090109 355 3486ft 134kts
01-Feb-21 13:11 36.152700 -115.119141 239 2601ft 81kts
01-Feb-21 13:12 36.133815 -115.136540 205 2323ft 97kts
01-Feb-21 13:13 36.108845 -115.150439 206 2316ft 96kts
01-Feb-21 13:14 36.089968 -115.162026 210 2136ft 23kts
01-Feb-21 13:15 36.089408 -115.163463 294 2143ft 0kts
01-Feb-21 13:16 36.089408 -115.163463 294 2143ft 0kts
01-Feb-21 13:17 36.088940 -115.165835 180 2144ft 8kts
01-Feb-21 13:18 36.088882 -115.165833 177 2144ft 0kts
01-Feb-21 13:19 36.088882 -115.165833 177 2144ft 0kts

Navigation Log

Ident Type
Flight plan parsing failed, navigation log unavailable